createdAt,value
2022-10-14T00:01:12.615Z,95.20
2022-10-14T00:03:41.455Z,95.81
2022-10-14T00:06:12.171Z,96.41
2022-10-14T00:08:41.244Z,96.16
2022-10-14T00:11:17.464Z,96.35
2022-10-14T00:13:45.952Z,95.84
2022-10-14T00:16:21.431Z,96.60
2022-10-14T00:18:50.159Z,96.81
2022-10-14T00:21:18.503Z,96.33
2022-10-14T00:23:47.535Z,96.18
2022-10-14T00:26:17.889Z,97.05
2022-10-14T00:28:46.124Z,97.11
2022-10-14T00:31:14.223Z,97.08
2022-10-14T00:33:45.445Z,96.80
2022-10-14T00:36:15.754Z,97.25
2022-10-14T00:38:45.315Z,97.06
2022-10-14T00:41:16.875Z,97.01
2022-10-14T00:44:03.111Z,97.46
2022-10-14T00:46:33.925Z,97.17
2022-10-14T00:49:10.075Z,97.04
2022-10-14T00:51:39.675Z,97.19
2022-10-14T00:54:08.364Z,97.35
2022-10-14T00:56:37.248Z,97.74
2022-10-14T00:59:09.240Z,97.61
2022-10-14T01:01:37.295Z,97.84
2022-10-14T01:04:07.361Z,97.67
2022-10-14T01:06:44.124Z,97.93
2022-10-14T01:09:21.104Z,97.74
2022-10-14T01:12:27.011Z,97.92
2022-10-14T01:14:59.844Z,97.73
2022-10-14T01:17:37.324Z,96.92
2022-10-14T01:20:48.150Z,96.44
2022-10-14T01:24:06.616Z,95.61
2022-10-14T01:26:54.694Z,95.38
2022-10-14T01:29:44.281Z,95.28
2022-10-14T01:32:18.554Z,95.26
2022-10-14T01:34:55.043Z,94.83
2022-10-14T01:37:27.520Z,95.23
2022-10-14T01:40:01.603Z,95.23
2022-10-14T01:45:39.072Z,95.84
2022-10-14T01:48:07.644Z,95.27
2022-10-14T01:50:38.963Z,96.09
2022-10-14T01:53:12.157Z,96.27
2022-10-14T01:55:45.457Z,96.92
2022-10-14T01:58:15.561Z,96.25
2022-10-14T02:00:47.910Z,96.61
2022-10-14T02:03:15.897Z,96.67
2022-10-14T02:05:48.789Z,96.55
2022-10-14T02:08:27.012Z,97.03
2022-10-14T02:11:12.312Z,96.65
2022-10-14T02:14:11.241Z,97.63
2022-10-14T02:16:44.902Z,97.70
2022-10-14T02:19:24.464Z,97.36
2022-10-14T02:21:57.326Z,97.52
2022-10-14T02:24:30.407Z,98.11
2022-10-14T02:27:01.681Z,97.93
2022-10-14T02:29:31.696Z,98.45
2022-10-14T02:32:02.017Z,98.51
2022-10-14T02:34:29.960Z,98.13
2022-10-14T02:37:00.709Z,98.30
2022-10-14T02:39:36.603Z,98.10
2022-10-14T02:42:06.375Z,97.57
2022-10-14T02:44:35.656Z,98.13
2022-10-14T02:47:05.046Z,98.20
2022-10-14T02:49:33.321Z,98.53
2022-10-14T02:52:01.218Z,98.32
2022-10-14T02:54:29.147Z,98.55
2022-10-14T02:56:58.919Z,98.00
2022-10-14T02:59:27.057Z,98.19
2022-10-14T03:01:56.368Z,97.89
2022-10-14T03:04:25.954Z,98.30
2022-10-14T03:06:54.951Z,98.57
2022-10-14T03:09:25.148Z,99.05
2022-10-14T03:11:53.171Z,98.87
2022-10-14T03:14:22.780Z,98.90
2022-10-14T03:16:51.918Z,98.56
2022-10-14T03:19:25.141Z,98.71
2022-10-14T03:21:56.212Z,98.87
2022-10-14T03:24:24.103Z,98.86
2022-10-14T03:27:10.720Z,98.67
2022-10-14T03:29:39.003Z,98.60
2022-10-14T03:32:14.517Z,98.34
2022-10-14T03:35:02.520Z,98.96
2022-10-14T03:37:30.487Z,99.04
2022-10-14T03:39:59.784Z,98.58
2022-10-14T03:42:27.813Z,98.22
2022-10-14T03:44:56.611Z,98.40
2022-10-14T03:47:28.835Z,97.54
2022-10-14T03:49:57.068Z,97.52
2022-10-14T03:52:43.638Z,98.12
2022-10-14T03:55:22.658Z,98.05
2022-10-14T03:57:52.293Z,98.17
2022-10-14T04:00:21.150Z,97.96
2022-10-14T04:02:58.723Z,97.40
2022-10-14T04:05:37.934Z,97.08
2022-10-14T04:08:13.087Z,96.75
2022-10-14T04:10:46.051Z,96.79
2022-10-14T04:13:15.811Z,96.34
2022-10-14T04:15:43.796Z,97.57
2022-10-14T04:18:17.724Z,97.50
2022-10-14T04:20:46.467Z,97.86
2022-10-14T04:23:17.248Z,97.60
2022-10-14T04:25:47.713Z,96.19
2022-10-14T04:28:15.709Z,97.20
2022-10-14T04:30:57.630Z,96.44
2022-10-14T04:33:30.012Z,96.55
2022-10-14T04:36:08.008Z,96.44
2022-10-14T04:38:39.924Z,97.24
2022-10-14T04:41:10.263Z,97.00
2022-10-14T04:43:43.325Z,97.23
2022-10-14T04:46:22.728Z,96.86
2022-10-14T04:48:50.987Z,96.80
2022-10-14T04:51:20.482Z,97.47
2022-10-14T04:54:08.115Z,97.79
2022-10-14T04:56:49.977Z,97.92
2022-10-14T04:59:17.930Z,97.31
2022-10-14T05:02:18.205Z,97.66
2022-10-14T05:04:53.827Z,97.71
2022-10-14T05:07:22.478Z,96.66
2022-10-14T05:09:57.412Z,96.89
2022-10-14T05:12:34.928Z,96.86
2022-10-14T05:15:06.031Z,97.30
2022-10-14T05:17:44.389Z,97.00
2022-10-14T05:20:14.763Z,95.55
2022-10-14T05:22:45.700Z,95.31
2022-10-14T05:25:15.284Z,95.29
2022-10-14T05:27:44.033Z,96.03
2022-10-14T05:30:13.368Z,95.99
2022-10-14T05:32:46.296Z,96.05
2022-10-14T05:35:14.895Z,95.34
2022-10-14T05:37:42.840Z,94.99
2022-10-14T05:40:11.799Z,95.18
2022-10-14T05:42:41.211Z,94.33
2022-10-14T05:45:10.809Z,94.62
2022-10-14T05:47:45.553Z,94.41
2022-10-14T05:50:18.058Z,94.12
2022-10-14T05:52:47.978Z,94.12
2022-10-14T05:55:24.568Z,93.40
2022-10-14T05:57:59.227Z,94.06
2022-10-14T06:00:33.363Z,93.98
2022-10-14T06:03:06.527Z,93.82
2022-10-14T06:05:36.571Z,94.17
2022-10-14T06:08:05.082Z,93.09
2022-10-14T06:10:36.423Z,93.84
2022-10-14T06:13:06.316Z,93.58
2022-10-14T06:15:37.615Z,93.28
2022-10-14T06:18:07.113Z,93.26
2022-10-14T06:20:35.250Z,93.43
2022-10-14T06:23:03.492Z,93.34
2022-10-14T06:25:31.966Z,93.63
2022-10-14T06:28:04.236Z,93.27
2022-10-14T06:30:34.242Z,93.37
2022-10-14T06:33:02.171Z,92.98
2022-10-14T06:35:30.162Z,93.06
2022-10-14T06:37:58.686Z,92.44
2022-10-14T06:40:26.611Z,92.14
2022-10-14T06:42:54.641Z,92.62
2022-10-14T06:45:22.583Z,91.98
2022-10-14T06:47:51.818Z,92.27
2022-10-14T06:50:19.811Z,91.16
2022-10-14T06:52:48.755Z,91.54
2022-10-14T06:55:17.966Z,91.87
2022-10-14T06:57:45.978Z,91.02
2022-10-14T07:00:14.656Z,91.54
2022-10-14T07:02:42.540Z,91.03
2022-10-14T07:05:12.295Z,91.80
2022-10-14T07:07:40.190Z,91.77
2022-10-14T07:10:08.631Z,91.57
2022-10-14T07:12:36.544Z,91.82
2022-10-14T07:15:05.157Z,92.22
2022-10-14T07:17:33.264Z,91.91
2022-10-14T07:20:01.642Z,91.34
2022-10-14T07:22:33.034Z,91.77
2022-10-14T07:25:05.477Z,91.36
2022-10-14T07:27:33.788Z,91.26
2022-10-14T07:30:02.486Z,91.42
2022-10-14T07:32:30.411Z,91.34
2022-10-14T07:34:58.884Z,91.03
2022-10-14T07:37:26.784Z,90.55
2022-10-14T07:39:56.221Z,90.74
2022-10-14T07:42:24.072Z,90.76
2022-10-14T07:44:54.143Z,89.84
2022-10-14T07:47:22.523Z,90.36
2022-10-14T07:49:51.263Z,89.96
2022-10-14T07:52:19.690Z,90.20
2022-10-14T07:54:47.644Z,89.91
2022-10-14T07:57:17.166Z,90.02
2022-10-14T07:59:46.233Z,89.95
2022-10-14T08:02:14.411Z,89.75
2022-10-14T08:04:42.294Z,89.54
2022-10-14T08:07:10.382Z,88.85
2022-10-14T08:09:38.253Z,89.54
2022-10-14T08:12:06.597Z,89.36
2022-10-14T08:14:35.841Z,89.21
2022-10-14T08:17:03.869Z,89.40
2022-10-14T08:19:31.933Z,88.66
2022-10-14T08:21:59.847Z,88.79
2022-10-14T08:24:27.767Z,88.20
2022-10-14T08:26:57.053Z,87.51
2022-10-14T08:29:26.410Z,88.28
2022-10-14T08:31:55.708Z,87.90
2022-10-14T08:34:24.461Z,87.41
2022-10-14T08:36:52.938Z,87.80
2022-10-14T08:39:21.450Z,87.82
2022-10-14T08:42:17.295Z,87.25
2022-10-14T08:44:50.653Z,87.69
2022-10-14T08:47:24.140Z,88.54
2022-10-14T08:50:01.526Z,87.87
2022-10-14T08:52:37.728Z,87.67
2022-10-14T08:55:20.744Z,87.44
2022-10-14T08:57:52.552Z,87.13
2022-10-14T09:00:21.955Z,87.02
2022-10-14T09:02:52.685Z,87.58
2022-10-14T09:05:23.642Z,87.85
2022-10-14T09:07:54.664Z,86.85
2022-10-14T09:10:31.282Z,86.48
2022-10-14T09:13:04.411Z,86.07
2022-10-14T09:15:38.786Z,86.29
2022-10-14T09:18:21.028Z,86.16
2022-10-14T09:20:49.650Z,85.27
2022-10-14T09:23:19.832Z,85.91
2022-10-14T09:25:56.528Z,85.98
2022-10-14T09:28:31.088Z,83.85
2022-10-14T09:30:59.101Z,84.19
2022-10-14T09:33:29.683Z,84.36
2022-10-14T09:38:27.998Z,83.19
2022-10-14T09:40:59.454Z,82.79
2022-10-14T09:43:27.541Z,83.23
2022-10-14T09:45:59.283Z,83.19
2022-10-14T09:48:41.110Z,82.70
2022-10-14T09:51:11.420Z,82.35
2022-10-14T09:53:42.265Z,83.00
2022-10-14T09:56:11.230Z,82.53
2022-10-14T09:58:45.696Z,82.48
2022-10-14T10:01:17.164Z,80.76
2022-10-14T10:03:47.978Z,81.40
2022-10-14T10:06:19.058Z,81.85
2022-10-14T10:08:57.520Z,80.10
2022-10-14T10:11:30.058Z,80.80
2022-10-14T10:13:58.327Z,80.37
2022-10-14T10:16:31.280Z,80.29
2022-10-14T10:19:27.075Z,81.95
2022-10-14T10:21:55.524Z,80.43
2022-10-14T10:24:27.393Z,81.27
2022-10-14T10:26:58.433Z,81.60
2022-10-14T10:29:32.315Z,81.47
2022-10-14T10:32:12.069Z,80.61
2022-10-14T10:35:05.998Z,81.44
2022-10-14T10:37:41.012Z,80.77
2022-10-14T10:40:35.500Z,81.30
2022-10-14T10:43:32.831Z,80.98
2022-10-14T10:46:13.951Z,81.34
2022-10-14T10:48:48.034Z,81.13
2022-10-14T10:51:26.747Z,81.74
2022-10-14T10:54:07.907Z,84.37
2022-10-14T10:56:42.568Z,85.84
2022-10-14T10:59:36.611Z,86.52
2022-10-14T11:02:28.695Z,87.46
2022-10-14T11:05:04.263Z,87.87
2022-10-14T11:08:05.535Z,87.53
2022-10-14T11:11:00.175Z,87.78
2022-10-14T11:13:37.950Z,88.03
2022-10-14T11:16:12.886Z,88.21
2022-10-14T11:18:49.494Z,87.97
2022-10-14T11:21:27.136Z,89.06
2022-10-14T11:24:07.119Z,88.22
2022-10-14T11:26:54.282Z,88.15
2022-10-14T11:29:38.835Z,88.50
2022-10-14T11:32:19.182Z,87.73
2022-10-14T11:34:58.292Z,87.14
2022-10-14T11:37:30.679Z,86.74
2022-10-14T11:40:06.836Z,87.07
2022-10-14T11:42:49.149Z,86.51
2022-10-14T11:45:53.325Z,86.38
2022-10-14T11:48:33.603Z,86.80
2022-10-14T11:51:11.935Z,86.05
2022-10-14T11:53:56.922Z,85.03
2022-10-14T11:56:35.320Z,85.94
2022-10-14T11:59:29.780Z,85.67
2022-10-14T12:02:13.268Z,84.86
2022-10-14T12:04:44.908Z,85.03
2022-10-14T12:07:18.600Z,84.03
2022-10-14T12:09:59.014Z,83.65
2022-10-14T12:12:31.409Z,82.90
2022-10-14T12:15:02.606Z,82.96
2022-10-14T12:17:35.218Z,81.30
2022-10-14T12:20:16.708Z,82.05
2022-10-14T12:22:46.318Z,81.60
2022-10-14T12:25:17.936Z,81.70
2022-10-14T12:27:47.866Z,82.36
2022-10-14T12:30:40.134Z,81.52
2022-10-14T12:33:11.612Z,80.74
2022-10-14T12:35:59.382Z,80.19
2022-10-14T12:38:29.044Z,80.84
2022-10-14T12:41:35.104Z,81.22
2022-10-14T12:44:06.498Z,80.06
2022-10-14T12:46:44.878Z,80.34
2022-10-14T12:49:19.811Z,79.50
2022-10-14T12:51:55.091Z,80.17
2022-10-14T12:54:24.805Z,81.10
2022-10-14T12:56:59.501Z,81.59
2022-10-14T12:59:32.841Z,80.49
2022-10-14T13:02:04.498Z,79.42
2022-10-14T13:04:33.706Z,81.07
2022-10-14T13:07:40.300Z,80.45
2022-10-14T13:10:47.151Z,79.92
2022-10-14T13:13:53.423Z,80.16
2022-10-14T13:17:04.161Z,80.42
2022-10-14T13:19:48.787Z,80.61
2022-10-14T13:22:36.713Z,80.89
2022-10-14T13:25:12.139Z,80.43
2022-10-14T13:27:48.995Z,80.41
2022-10-14T13:30:34.907Z,80.70
2022-10-14T13:33:12.557Z,80.38
2022-10-14T13:35:52.378Z,81.04
2022-10-14T13:38:23.651Z,80.93
2022-10-14T13:40:55.282Z,80.89
2022-10-14T13:43:27.161Z,80.82
2022-10-14T13:46:04.346Z,80.81
2022-10-14T13:48:35.495Z,80.72
2022-10-14T13:51:36.215Z,80.68
2022-10-14T13:54:17.503Z,81.26
2022-10-14T13:57:12.634Z,81.25
2022-10-14T14:00:19.493Z,81.60
2022-10-14T14:02:43.468Z,81.41
2022-10-14T14:05:18.483Z,81.54
2022-10-14T14:10:51.448Z,81.87
2022-10-14T14:13:25.974Z,82.56
2022-10-14T14:15:55.824Z,82.90
2022-10-14T14:18:49.246Z,82.81
2022-10-14T14:21:26.640Z,82.49
2022-10-14T14:23:58.111Z,81.95
2022-10-14T14:26:33.985Z,82.61
2022-10-14T14:29:05.835Z,82.71
2022-10-14T14:32:01.477Z,82.39
2022-10-14T14:34:24.603Z,81.76
2022-10-14T14:36:55.721Z,82.54
2022-10-14T14:39:29.970Z,82.42
2022-10-14T14:42:00.683Z,82.23
2022-10-14T14:44:33.249Z,82.08
2022-10-14T14:47:04.636Z,82.65
2022-10-14T14:49:36.372Z,83.29
2022-10-14T14:52:06.854Z,83.66
2022-10-14T14:54:46.242Z,83.55
2022-10-14T14:57:19.613Z,84.55
2022-10-14T14:59:59.340Z,85.56
2022-10-14T15:02:27.356Z,85.53
2022-10-14T15:05:03.595Z,85.85
2022-10-14T15:07:31.816Z,86.71
2022-10-14T15:10:03.212Z,87.12
2022-10-14T15:12:34.172Z,87.46
2022-10-14T15:15:03.371Z,87.75
2022-10-14T15:17:34.411Z,87.77
2022-10-14T15:20:25.700Z,88.54
2022-10-14T15:22:53.618Z,89.00
2022-10-14T15:25:30.008Z,88.70
2022-10-14T15:27:58.935Z,89.08
2022-10-14T15:30:31.806Z,90.38
2022-10-14T15:33:01.829Z,90.93
2022-10-14T15:35:30.673Z,91.75
2022-10-14T15:37:58.769Z,92.68
2022-10-14T15:40:30.631Z,91.86
2022-10-14T15:42:59.564Z,92.14
2022-10-14T15:45:27.603Z,92.54
2022-10-14T15:48:00.921Z,91.79
2022-10-14T15:50:29.037Z,92.13
2022-10-14T15:52:57.107Z,93.04
2022-10-14T15:55:27.952Z,93.75
2022-10-14T15:57:57.422Z,93.62
2022-10-14T16:00:26.326Z,94.03
2022-10-14T16:02:58.314Z,94.00
2022-10-14T16:05:27.144Z,93.51
2022-10-14T16:07:55.056Z,93.92
2022-10-14T16:10:24.632Z,93.73
2022-10-14T16:12:52.938Z,93.19
2022-10-14T16:15:32.392Z,93.34
2022-10-14T16:18:01.780Z,93.41
2022-10-14T16:20:30.820Z,93.92
2022-10-14T16:22:59.378Z,92.75
2022-10-14T16:25:34.412Z,92.96
2022-10-14T16:28:09.962Z,92.37
2022-10-14T16:30:44.049Z,92.26
2022-10-14T16:35:51.759Z,92.98
2022-10-14T16:38:20.147Z,93.19
2022-10-14T16:40:55.196Z,93.14
2022-10-14T16:43:23.244Z,93.06
2022-10-14T16:45:52.694Z,92.74
2022-10-14T16:48:20.719Z,92.57
2022-10-14T16:50:53.953Z,92.48
2022-10-14T16:53:43.578Z,93.08
2022-10-14T16:56:32.539Z,92.56
2022-10-14T16:59:02.080Z,92.58
2022-10-14T17:01:32.263Z,92.53
2022-10-14T17:04:00.379Z,92.66
2022-10-14T17:06:29.064Z,93.10
2022-10-14T17:08:57.012Z,92.82
2022-10-14T17:11:27.382Z,92.76
2022-10-14T17:13:56.898Z,92.29
2022-10-14T17:16:25.150Z,92.03
2022-10-14T17:18:54.464Z,92.23
2022-10-14T17:21:24.295Z,92.45
2022-10-14T17:23:52.232Z,92.54
2022-10-14T17:26:21.026Z,93.20
2022-10-14T17:28:49.780Z,93.52
2022-10-14T17:31:22.733Z,92.38
2022-10-14T17:33:51.404Z,91.74
2022-10-14T17:36:22.940Z,91.30
2022-10-14T17:38:52.740Z,91.42
2022-10-14T17:41:20.929Z,91.86
2022-10-14T17:43:49.940Z,91.55
2022-10-14T17:46:20.782Z,91.40
2022-10-14T17:48:51.775Z,92.03
2022-10-14T17:51:22.928Z,92.45
2022-10-14T17:53:53.626Z,92.81
2022-10-14T17:56:22.047Z,92.65
2022-10-14T17:58:53.168Z,92.48
2022-10-14T18:01:36.675Z,92.78
2022-10-14T18:04:09.701Z,92.74
2022-10-14T18:06:39.023Z,93.72
2022-10-14T18:09:09.392Z,93.65
2022-10-14T18:12:07.184Z,94.71
2022-10-14T18:14:29.005Z,95.09
2022-10-14T18:16:56.936Z,95.72
2022-10-14T18:19:24.887Z,95.04
2022-10-14T18:21:54.194Z,95.57
2022-10-14T18:24:22.671Z,96.22
2022-10-14T18:26:50.773Z,96.41
2022-10-14T18:29:18.889Z,96.72
2022-10-14T18:31:47.026Z,97.83
2022-10-14T18:34:14.968Z,97.21
2022-10-14T18:36:43.002Z,97.63
2022-10-14T18:39:13.386Z,97.19
2022-10-14T18:41:41.984Z,96.67
2022-10-14T18:44:10.042Z,96.76
2022-10-14T18:46:39.347Z,96.73
2022-10-14T18:49:09.438Z,97.57
2022-10-14T18:51:39.311Z,97.66
2022-10-14T18:54:10.150Z,97.72
2022-10-14T18:56:39.695Z,98.25
2022-10-14T18:59:10.179Z,98.26
2022-10-14T19:01:39.610Z,98.04
2022-10-14T19:04:10.223Z,98.15
2022-10-14T19:06:38.147Z,97.49
2022-10-14T19:09:06.949Z,97.65
2022-10-14T19:11:35.632Z,96.87
2022-10-14T19:14:06.407Z,97.75
2022-10-14T19:16:38.213Z,97.13
2022-10-14T19:19:11.697Z,96.88
2022-10-14T19:21:40.195Z,97.29
2022-10-14T19:24:09.171Z,97.55
2022-10-14T19:26:39.616Z,97.49
2022-10-14T19:29:11.593Z,96.92
2022-10-14T19:31:40.793Z,97.39
2022-10-14T19:34:11.613Z,97.00
2022-10-14T19:36:40.421Z,97.71
2022-10-14T19:39:09.827Z,97.86
2022-10-14T19:41:42.632Z,97.42
2022-10-14T19:44:12.621Z,97.36
2022-10-14T19:46:41.249Z,97.23
2022-10-14T19:49:09.161Z,98.12
2022-10-14T19:51:37.127Z,97.81
2022-10-14T19:54:05.285Z,97.64
2022-10-14T19:56:33.295Z,97.92
2022-10-14T19:59:01.803Z,97.91
2022-10-14T20:01:32.087Z,97.75
2022-10-14T20:04:01.637Z,98.10
2022-10-14T20:06:33.263Z,97.73
2022-10-14T20:09:01.478Z,98.59
2022-10-14T20:11:29.819Z,98.49
2022-10-14T20:13:57.787Z,97.74
2022-10-14T20:16:26.332Z,98.18
2022-10-14T20:18:56.523Z,98.12
2022-10-14T20:21:24.849Z,98.48
2022-10-14T20:23:52.897Z,97.37
2022-10-14T20:26:22.429Z,97.99
2022-10-14T20:28:51.240Z,98.07
2022-10-14T20:31:22.175Z,97.33
2022-10-14T20:33:50.211Z,98.08
2022-10-14T20:36:21.369Z,97.57
2022-10-14T20:38:50.027Z,97.80
2022-10-14T20:41:20.168Z,98.33
2022-10-14T20:43:48.775Z,98.45
2022-10-14T20:46:17.182Z,97.86
2022-10-14T20:48:45.815Z,97.51
2022-10-14T20:51:16.377Z,97.55
2022-10-14T20:53:45.688Z,98.09
2022-10-14T20:56:14.393Z,98.58
2022-10-14T20:58:42.698Z,98.72
2022-10-14T21:01:12.934Z,99.00
2022-10-14T21:03:42.200Z,98.79
2022-10-14T21:06:13.778Z,99.32
2022-10-14T21:08:42.588Z,98.91
2022-10-14T21:11:15.108Z,98.26
2022-10-14T21:13:45.673Z,99.13
2022-10-14T21:16:15.232Z,99.87
2022-10-14T21:18:46.383Z,99.60
2022-10-14T21:21:16.650Z,100.00
2022-10-14T21:23:45.942Z,100.00
2022-10-14T21:26:15.952Z,100.00
2022-10-14T21:28:44.186Z,100.00
2022-10-14T21:31:17.355Z,100.00
2022-10-14T21:33:47.512Z,100.00
2022-10-14T21:36:17.492Z,100.00
2022-10-14T21:38:45.469Z,100.00
2022-10-14T21:41:15.082Z,100.00
2022-10-14T21:43:43.075Z,100.00
2022-10-14T21:46:12.755Z,100.00
2022-10-14T21:48:42.285Z,100.00
2022-10-14T21:51:12.362Z,100.00
2022-10-14T21:53:41.608Z,100.00
2022-10-14T21:56:10.646Z,100.00
2022-10-14T21:58:40.132Z,100.00
2022-10-14T22:01:09.917Z,100.00
2022-10-14T22:03:38.701Z,100.00
2022-10-14T22:06:09.313Z,100.00
2022-10-14T22:08:39.547Z,100.00
2022-10-14T22:11:09.234Z,100.00
2022-10-14T22:13:37.282Z,100.00
2022-10-14T22:16:06.777Z,100.00
2022-10-14T22:18:35.034Z,100.00
2022-10-14T22:21:06.994Z,100.00
2022-10-14T22:23:36.735Z,100.00
2022-10-14T22:26:05.656Z,100.00
2022-10-14T22:28:33.773Z,100.00
2022-10-14T22:31:06.601Z,100.00
2022-10-14T22:33:35.461Z,100.00
2022-10-14T22:36:07.786Z,100.00
2022-10-14T22:38:36.276Z,100.00
2022-10-14T22:41:04.973Z,100.00
2022-10-14T22:43:33.154Z,100.00
2022-10-14T22:46:02.202Z,100.00
2022-10-14T22:48:32.268Z,100.00
2022-10-14T22:51:04.307Z,100.00
2022-10-14T22:53:32.607Z,100.00
2022-10-14T22:56:01.095Z,100.00
2022-10-14T22:58:29.157Z,100.00
2022-10-14T23:00:57.127Z,100.00
2022-10-14T23:03:25.549Z,100.00
2022-10-14T23:06:00.552Z,100.00
2022-10-14T23:08:28.495Z,100.00
2022-10-14T23:10:56.482Z,100.00
2022-10-14T23:13:24.334Z,100.00
2022-10-14T23:15:59.045Z,100.00
2022-10-14T23:18:28.514Z,100.00
2022-10-14T23:20:57.804Z,100.00
2022-10-14T23:23:25.771Z,100.00
2022-10-14T23:25:53.637Z,100.00
2022-10-14T23:28:21.593Z,100.00
2022-10-14T23:30:49.540Z,100.00
2022-10-14T23:33:17.464Z,100.00
2022-10-14T23:35:45.408Z,100.00
2022-10-14T23:38:14.816Z,100.00
2022-10-14T23:40:42.830Z,100.00
2022-10-14T23:43:10.733Z,100.00
2022-10-14T23:45:38.752Z,100.00
2022-10-14T23:48:07.599Z,100.00
2022-10-14T23:50:35.500Z,100.00
2022-10-14T23:53:03.521Z,100.00
2022-10-14T23:55:32.765Z,100.00
2022-10-14T23:58:00.687Z,100.00
